Terminal Aerodrome Forecast
Issued by NWS Cleveland, OH

Home | Current Version | Previous Version | Graphics & Text | Print | Product List | Glossary On
Versions: 1 2 3 4 5 6 7 8 9 10 11 12 13 14 15 16
714
FTUS41 KCLE 210955 AAC
TAFYNG
TAF AMD
KYNG 210955Z 2110/2206 00000KT P6SM FEW250
      TEMPO 2110/2113 3SM BR SCT003
     FM211400 00000KT 6SM BR SCT006
     FM211500 15003KT P6SM SCT250
     FM211800 14004KT P6SM SCT045
     FM220000 07003KT P6SM FEW250=

USA.gov is the U.S. government's official web portal to all federal, state and local government web resources and services.